HAZ2773 ZPPP-ZSHC
Flight info
| Callsign | HAZ2773 |
|---|---|
| Flight time | N/A |
| Altitude | 37100 |
| Route | NODIB W137 LPS A581 IDGAG W80 XSH DCT JDZ DCT TXN G204 OREXA |
| Aircraft | B77W/H-SDE1E2E3FGHIJ2J3J4J5M1RWXY/LB1D1 |
Departure
| Time | 2026-05-04 12:53 |
|---|---|
| Airport | Kunming Changshui International Airport (ZPPP) |
Arrival
| Time | N/A |
|---|---|
| Airport | Hangzhou Xiaoshan International Airport (ZSHC) |
| Time | Latitude | Longitude | Altitude | Speed | Heading |
|---|---|---|---|---|---|
| 2026-05-04 12:37 | 25.11051 | 102.93582 | 6903 ft | 0 kts | 308° |
| 2026-05-04 12:37 | 25.11058 | 102.93571 | 6903 ft | 3 kts | 307° |
| 2026-05-04 12:38 | 25.11108 | 102.93500 | 6921 ft | 22 kts | 307° |
| 2026-05-04 12:38 | 25.11194 | 102.93382 | 6922 ft | 16 kts | 309° |
| 2026-05-04 12:38 | 25.11262 | 102.93287 | 6914 ft | 16 kts | 308° |
| 2026-05-04 12:38 | 25.11329 | 102.93193 | 6918 ft | 16 kts | 308° |
| 2026-05-04 12:39 | 25.11397 | 102.93099 | 6924 ft | 16 kts | 309° |
| 2026-05-04 12:39 | 25.11471 | 102.93042 | 6917 ft | 12 kts | 7° |
| 2026-05-04 12:39 | 25.11556 | 102.93096 | 6918 ft | 16 kts | 37° |
| 2026-05-04 12:39 | 25.11644 | 102.93171 | 6920 ft | 16 kts | 37° |
| 2026-05-04 12:40 | 25.11732 | 102.93247 | 6921 ft | 16 kts | 39° |
| 2026-05-04 12:40 | 25.11818 | 102.93324 | 6911 ft | 16 kts | 39° |
| 2026-05-04 12:40 | 25.11905 | 102.93400 | 6919 ft | 16 kts | 39° |
| 2026-05-04 12:40 | 25.11992 | 102.93477 | 6914 ft | 16 kts | 39° |
| 2026-05-04 12:41 | 25.12079 | 102.93553 | 6916 ft | 16 kts | 38° |
| 2026-05-04 12:41 | 25.12166 | 102.93628 | 6916 ft | 16 kts | 38° |
| 2026-05-04 12:41 | 25.12254 | 102.93704 | 6917 ft | 16 kts | 38° |
| 2026-05-04 12:41 | 25.12343 | 102.93780 | 6909 ft | 16 kts | 38° |
| 2026-05-04 12:42 | 25.12429 | 102.93855 | 6904 ft | 16 kts | 38° |
| 2026-05-04 12:42 | 25.12517 | 102.93930 | 6903 ft | 16 kts | 38° |
| 2026-05-04 12:42 | 25.12602 | 102.94004 | 6902 ft | 12 kts | 39° |
| 2026-05-04 12:42 | 25.12616 | 102.94016 | 6902 ft | 0 kts | 39° |
| 2026-05-04 12:43 | 25.12629 | 102.94027 | 6902 ft | 3 kts | 39° |
| 2026-05-04 12:43 | 25.12647 | 102.94043 | 6902 ft | 3 kts | 39° |
| 2026-05-04 12:44 | 25.12659 | 102.94054 | 6902 ft | 0 kts | 39° |
| 2026-05-04 12:46 | 25.12685 | 102.94077 | 6902 ft | 6 kts | 39° |
| 2026-05-04 12:47 | 25.12720 | 102.94108 | 6902 ft | 6 kts | 39° |
| 2026-05-04 12:47 | 25.12743 | 102.94129 | 6902 ft | 6 kts | 39° |
| 2026-05-04 12:47 | 25.12763 | 102.94146 | 6902 ft | 0 kts | 38° |
| 2026-05-04 12:49 | 25.12801 | 102.94179 | 6901 ft | 12 kts | 38° |
| 2026-05-04 12:50 | 25.12865 | 102.94235 | 6901 ft | 12 kts | 38° |
| 2026-05-04 12:50 | 25.12938 | 102.94271 | 6901 ft | 12 kts | 348° |
| 2026-05-04 12:50 | 25.12966 | 102.94251 | 6901 ft | 0 kts | 316° |
| 2026-05-04 12:51 | 25.12967 | 102.94250 | 6901 ft | 1 kts | 316° |
| 2026-05-04 12:51 | 25.12998 | 102.94212 | 6900 ft | 13 kts | 310° |
| 2026-05-04 12:52 | 25.13001 | 102.94117 | 6898 ft | 14 kts | 232° |
| 2026-05-04 12:52 | 25.12881 | 102.94007 | 6900 ft | 39 kts | 219° |
| 2026-05-04 12:52 | 25.12480 | 102.93658 | 6916 ft | 106 kts | 218° |
| 2026-05-04 12:52 | 25.11737 | 102.93011 | 6917 ft | 163 kts | 218° |
| 2026-05-04 12:53 | 25.10756 | 102.92151 | 7052 ft | 190 kts | 219° |
| 2026-05-04 12:53 | 25.09709 | 102.91258 | 7659 ft | 188 kts | 210° |
| 2026-05-04 12:53 | 25.08437 | 102.90837 | 8111 ft | 201 kts | 181° |
| 2026-05-04 12:53 | 25.07038 | 102.90947 | 8605 ft | 203 kts | 178° |
| 2026-05-04 12:54 | 25.05575 | 102.91037 | 8984 ft | 222 kts | 180° |
| 2026-05-04 12:54 | 25.03936 | 102.91103 | 9220 ft | 250 kts | 180° |
| 2026-05-04 12:54 | 25.02095 | 102.91156 | 9534 ft | 276 kts | 181° |
| 2026-05-04 12:54 | 25.00119 | 102.91199 | 10174 ft | 291 kts | 181° |
| 2026-05-04 12:55 | 24.98013 | 102.91231 | 10594 ft | 317 kts | 182° |
| 2026-05-04 12:55 | 24.95694 | 102.91255 | 10800 ft | 348 kts | 182° |
| 2026-05-04 12:55 | 24.93176 | 102.91275 | 11163 ft | 372 kts | 182° |
| 2026-05-04 12:55 | 24.90543 | 102.91297 | 11926 ft | 383 kts | 182° |
| 2026-05-04 12:56 | 24.87879 | 102.91565 | 12677 ft | 392 kts | 167° |
| 2026-05-04 12:56 | 24.85407 | 102.92904 | 13549 ft | 405 kts | 144° |
| 2026-05-04 12:56 | 24.83462 | 102.95184 | 14404 ft | 414 kts | 124° |
| 2026-05-04 12:56 | 24.82297 | 102.98098 | 15117 ft | 423 kts | 102° |
| 2026-05-04 12:57 | 24.82115 | 103.01341 | 15941 ft | 428 kts | 82° |
| 2026-05-04 12:57 | 24.82850 | 103.04512 | 16708 ft | 432 kts | 63° |
| 2026-05-04 12:57 | 24.84428 | 103.07322 | 17528 ft | 432 kts | 45° |
| 2026-05-04 12:57 | 24.86677 | 103.09468 | 18267 ft | 427 kts | 30° |
| 2026-05-04 12:58 | 24.89166 | 103.11337 | 18846 ft | 436 kts | 29° |
| 2026-05-04 12:58 | 24.91691 | 103.13211 | 19531 ft | 440 kts | 29° |
| 2026-05-04 12:58 | 24.94236 | 103.15099 | 20328 ft | 443 kts | 30° |
| 2026-05-04 12:58 | 24.96796 | 103.17011 | 21051 ft | 447 kts | 30° |
| 2026-05-04 12:59 | 24.99377 | 103.18959 | 21735 ft | 453 kts | 30° |
| 2026-05-04 12:59 | 25.01990 | 103.20950 | 22397 ft | 458 kts | 30° |
| 2026-05-04 12:59 | 25.04585 | 103.22939 | 23080 ft | 463 kts | 31° |
| 2026-05-04 12:59 | 25.07268 | 103.25003 | 23824 ft | 465 kts | 31° |
| 2026-05-04 13:00 | 25.09895 | 103.27029 | 24362 ft | 470 kts | 31° |
| 2026-05-04 13:00 | 25.12590 | 103.29107 | 24851 ft | 475 kts | 30° |
| 2026-05-04 13:00 | 25.15351 | 103.31234 | 25352 ft | 480 kts | 30° |
| 2026-05-04 13:00 | 25.18062 | 103.33325 | 25872 ft | 484 kts | 30° |
| 2026-05-04 13:01 | 25.20831 | 103.35463 | 26348 ft | 488 kts | 30° |
| 2026-05-04 13:01 | 25.23666 | 103.37651 | 26864 ft | 492 kts | 29° |
| 2026-05-04 13:01 | 25.26479 | 103.39821 | 27341 ft | 497 kts | 29° |
| 2026-05-04 13:01 | 25.29294 | 103.41994 | 27781 ft | 501 kts | 29° |
| 2026-05-04 13:02 | 25.32197 | 103.44237 | 28287 ft | 505 kts | 28° |
| 2026-05-04 13:02 | 25.35084 | 103.46471 | 28792 ft | 508 kts | 28° |
| 2026-05-04 13:02 | 25.37956 | 103.48695 | 29240 ft | 512 kts | 28° |
| 2026-05-04 13:02 | 25.40882 | 103.50964 | 29674 ft | 516 kts | 28° |
| 2026-05-04 13:03 | 25.43820 | 103.53243 | 30106 ft | 519 kts | 28° |
| 2026-05-04 13:03 | 25.46794 | 103.55550 | 30462 ft | 522 kts | 28° |
| 2026-05-04 13:03 | 25.49729 | 103.57936 | 30795 ft | 529 kts | 33° |
| 2026-05-04 13:03 | 25.52465 | 103.60705 | 31244 ft | 534 kts | 39° |
| 2026-05-04 13:04 | 25.54961 | 103.63760 | 31771 ft | 536 kts | 45° |
| 2026-05-04 13:04 | 25.57184 | 103.67097 | 32272 ft | 540 kts | 51° |
| 2026-05-04 13:04 | 25.59213 | 103.70597 | 32758 ft | 540 kts | 52° |
| 2026-05-04 13:04 | 25.61199 | 103.74120 | 33215 ft | 540 kts | 52° |
| 2026-05-04 13:05 | 25.63183 | 103.77649 | 33701 ft | 538 kts | 52° |
| 2026-05-04 13:05 | 25.65172 | 103.81155 | 34171 ft | 536 kts | 52° |
| 2026-05-04 13:05 | 25.67171 | 103.84638 | 34580 ft | 535 kts | 52° |
| 2026-05-04 13:05 | 25.69171 | 103.88097 | 35061 ft | 531 kts | 51° |
| 2026-05-04 13:06 | 25.71164 | 103.91533 | 35526 ft | 529 kts | 51° |
| 2026-05-04 13:06 | 25.73143 | 103.94947 | 35917 ft | 527 kts | 51° |
| 2026-05-04 13:06 | 25.75129 | 103.98377 | 36320 ft | 527 kts | 52° |
| 2026-05-04 13:06 | 25.77011 | 104.01634 | 36676 ft | 526 kts | 52° |
| 2026-05-04 13:07 | 25.78979 | 104.05045 | 37078 ft | 524 kts | 52° |
| 2026-05-04 13:07 | 25.80943 | 104.08439 | 37324 ft | 526 kts | 51° |
| 2026-05-04 13:07 | 25.82950 | 104.11859 | 37253 ft | 528 kts | 51° |
| 2026-05-04 13:07 | 25.84970 | 104.15272 | 38190 ft | 529 kts | 57° |
| 2026-05-04 13:08 | 25.86993 | 104.18696 | 37941 ft | 531 kts | 57° |
| 2026-05-04 13:08 | 25.89015 | 104.22130 | 37698 ft | 532 kts | 57° |
| 2026-05-04 13:08 | 25.91040 | 104.25578 | 37458 ft | 533 kts | 57° |
| 2026-05-04 13:08 | 25.93062 | 104.29026 | 37294 ft | 533 kts | 57° |
| 2026-05-04 13:09 | 25.95081 | 104.32474 | 37203 ft | 531 kts | 57° |
| 2026-05-04 13:09 | 25.99093 | 104.39327 | 37103 ft | 527 kts | 57° |
| 2026-05-04 13:10 | 26.03436 | 104.45716 | 37101 ft | 521 kts | 48° |
| 2026-05-04 13:10 | 26.08680 | 104.51224 | 37101 ft | 517 kts | 39° |
| 2026-05-04 13:11 | 26.14220 | 104.56277 | 37099 ft | 514 kts | 39° |
| 2026-05-04 13:11 | 26.19727 | 104.61317 | 37096 ft | 511 kts | 39° |
| 2026-05-04 13:12 | 26.25148 | 104.66346 | 37096 ft | 508 kts | 40° |
| 2026-05-04 13:12 | 26.30573 | 104.71409 | 37096 ft | 506 kts | 40° |
| 2026-05-04 13:13 | 26.35956 | 104.76437 | 37098 ft | 504 kts | 40° |
| 2026-05-04 13:13 | 26.41316 | 104.81447 | 37097 ft | 502 kts | 40° |
| 2026-05-04 13:14 | 26.46650 | 104.86438 | 37099 ft | 500 kts | 40° |
| 2026-05-04 13:14 | 26.51973 | 104.91424 | 37101 ft | 498 kts | 40° |
| 2026-05-04 13:15 | 26.57277 | 104.96402 | 36159 ft | 497 kts | 32° |
| 2026-05-04 13:15 | 26.59927 | 104.98892 | 36424 ft | 499 kts | 33° |
| 2026-05-04 13:15 | 26.62316 | 105.01473 | 36636 ft | 510 kts | 41° |
| 2026-05-04 13:15 | 26.64546 | 105.04602 | 36863 ft | 519 kts | 48° |
| 2026-05-04 13:16 | 26.66476 | 105.08050 | 37045 ft | 530 kts | 56° |
| 2026-05-04 13:16 | 26.69588 | 105.15624 | 37154 ft | 540 kts | 60° |
| 2026-05-04 13:17 | 26.72565 | 105.23364 | 37168 ft | 541 kts | 60° |
| 2026-05-04 13:17 | 26.75560 | 105.31015 | 37168 ft | 531 kts | 60° |
| 2026-05-04 13:18 | 26.78593 | 105.38584 | 37177 ft | 535 kts | 59° |
| 2026-05-04 13:18 | 26.81662 | 105.46207 | 37174 ft | 538 kts | 60° |
| 2026-05-04 13:19 | 26.84729 | 105.53876 | 37170 ft | 541 kts | 60° |
| 2026-05-04 13:19 | 26.87796 | 105.61577 | 37168 ft | 542 kts | 60° |
| 2026-05-04 13:20 | 26.90836 | 105.69235 | 37192 ft | 541 kts | 59° |
| 2026-05-04 13:20 | 26.93893 | 105.76927 | 37172 ft | 540 kts | 59° |
| 2026-05-04 13:21 | 26.96933 | 105.84599 | 37167 ft | 538 kts | 59° |
| 2026-05-04 13:21 | 26.99958 | 105.92248 | 37189 ft | 536 kts | 59° |
| 2026-05-04 13:22 | 27.02965 | 105.99862 | 37199 ft | 535 kts | 59° |
| 2026-05-04 13:22 | 27.06032 | 106.07200 | 37200 ft | 531 kts | 56° |
| 2026-05-04 13:23 | 27.09427 | 106.14558 | 37190 ft | 531 kts | 56° |
| 2026-05-04 13:23 | 27.12828 | 106.21914 | 37216 ft | 532 kts | 56° |
| 2026-05-04 13:24 | 27.16201 | 106.29330 | 37197 ft | 534 kts | 56° |
| 2026-05-04 13:24 | 27.19574 | 106.36776 | 37218 ft | 535 kts | 56° |
| 2026-05-04 13:25 | 27.24644 | 106.47932 | 37198 ft | 534 kts | 56° |
| 2026-05-04 13:25 | 27.28022 | 106.55372 | 37203 ft | 534 kts | 56° |
| 2026-05-04 13:26 | 27.31398 | 106.62822 | 37213 ft | 535 kts | 56° |
| 2026-05-04 13:26 | 27.34773 | 106.70283 | 37205 ft | 536 kts | 56° |
| 2026-05-04 13:27 | 27.38125 | 106.77718 | 37217 ft | 537 kts | 56° |
| 2026-05-04 13:27 | 27.41507 | 106.85271 | 37207 ft | 537 kts | 56° |
| 2026-05-04 13:28 | 27.44860 | 106.92780 | 37205 ft | 536 kts | 56° |
| 2026-05-04 13:28 | 27.48142 | 107.00129 | 37209 ft | 535 kts | 56° |
| 2026-05-04 13:29 | 27.51501 | 107.07535 | 37195 ft | 536 kts | 56° |
| 2026-05-04 13:29 | 27.54907 | 107.15020 | 37176 ft | 536 kts | 56° |
| 2026-05-04 13:30 | 27.58294 | 107.22508 | 37198 ft | 537 kts | 56° |
| 2026-05-04 13:30 | 27.61676 | 107.30017 | 37189 ft | 537 kts | 56° |
| 2026-05-04 13:31 | 27.64483 | 107.36268 | 37179 ft | 538 kts | 57° |
| 2026-05-04 13:31 | 27.68402 | 107.45022 | 37185 ft | 538 kts | 56° |
| 2026-05-04 13:32 | 27.71226 | 107.51331 | 37178 ft | 538 kts | 56° |
| 2026-05-04 13:32 | 27.74595 | 107.58870 | 37170 ft | 538 kts | 56° |
| 2026-05-04 13:33 | 27.78508 | 107.67647 | 37158 ft | 539 kts | 57° |
| 2026-05-04 13:33 | 27.81326 | 107.73977 | 37180 ft | 539 kts | 56° |
| 2026-05-04 13:34 | 27.84713 | 107.81548 | 37162 ft | 540 kts | 56° |
| 2026-05-04 13:34 | 27.88162 | 107.89080 | 37157 ft | 539 kts | 56° |
| 2026-05-04 13:35 | 27.93259 | 108.00204 | 37154 ft | 539 kts | 56° |
| 2026-05-04 13:36 | 27.96671 | 108.07704 | 37154 ft | 540 kts | 56° |
| 2026-05-04 13:36 | 28.00084 | 108.15226 | 37157 ft | 539 kts | 56° |
| 2026-05-04 13:37 | 28.03483 | 108.22733 | 37146 ft | 539 kts | 56° |
| 2026-05-04 13:37 | 28.06904 | 108.30295 | 37137 ft | 540 kts | 56° |
| 2026-05-04 13:38 | 28.10320 | 108.37862 | 37150 ft | 540 kts | 56° |
| 2026-05-04 13:38 | 28.13759 | 108.45490 | 37144 ft | 541 kts | 56° |
| 2026-05-04 13:39 | 28.17171 | 108.53079 | 37151 ft | 541 kts | 56° |
| 2026-05-04 13:39 | 28.20581 | 108.60681 | 37141 ft | 541 kts | 56° |
| 2026-05-04 13:40 | 28.23975 | 108.68252 | 37194 ft | 543 kts | 56° |
| 2026-05-04 13:40 | 28.27401 | 108.75902 | 37144 ft | 545 kts | 56° |
| 2026-05-04 13:41 | 28.30829 | 108.83584 | 37891 ft | 545 kts | 57° |
| 2026-05-04 13:41 | 28.32538 | 108.87401 | 37725 ft | 540 kts | 63° |
| 2026-05-04 13:41 | 28.34221 | 108.91189 | 37470 ft | 534 kts | 63° |
| 2026-05-04 13:42 | 28.37532 | 108.98657 | 37205 ft | 528 kts | 63° |
| 2026-05-04 13:42 | 28.39095 | 109.02178 | 37153 ft | 526 kts | 63° |
| 2026-05-04 13:42 | 28.42379 | 109.09580 | 37103 ft | 522 kts | 63° |
| 2026-05-04 13:43 | 28.45630 | 109.16922 | 37094 ft | 518 kts | 63° |
| 2026-05-04 13:43 | 28.48848 | 109.24205 | 37094 ft | 515 kts | 63° |
| 2026-05-04 13:44 | 28.52047 | 109.31460 | 37095 ft | 512 kts | 63° |
| 2026-05-04 13:44 | 28.55221 | 109.38672 | 37096 ft | 509 kts | 63° |
| 2026-05-04 13:45 | 28.58334 | 109.45879 | 37097 ft | 506 kts | 66° |
| 2026-05-04 13:45 | 28.60912 | 109.53314 | 37102 ft | 504 kts | 69° |
| 2026-05-04 13:46 | 28.63387 | 109.60710 | 37099 ft | 502 kts | 69° |
| 2026-05-04 13:46 | 28.65922 | 109.68102 | 37100 ft | 501 kts | 68° |
| 2026-05-04 13:47 | 28.68559 | 109.75478 | 37112 ft | 505 kts | 68° |
| 2026-05-04 13:47 | 28.71198 | 109.82780 | 37111 ft | 512 kts | 68° |
| 2026-05-04 13:48 | 28.73912 | 109.90337 | 37109 ft | 518 kts | 68° |
| 2026-05-04 13:48 | 28.76639 | 109.97985 | 37109 ft | 523 kts | 68° |
| 2026-05-04 13:49 | 28.79315 | 110.05511 | 37107 ft | 527 kts | 68° |
| 2026-05-04 13:49 | 28.82072 | 110.13279 | 37103 ft | 530 kts | 68° |
| 2026-05-04 13:50 | 28.84840 | 110.21094 | 37103 ft | 532 kts | 68° |
| 2026-05-04 13:50 | 28.87613 | 110.28937 | 37100 ft | 534 kts | 68° |
| 2026-05-04 13:51 | 28.90370 | 110.36753 | 37104 ft | 535 kts | 68° |
| 2026-05-04 13:51 | 28.93146 | 110.44641 | 37099 ft | 535 kts | 68° |
| 2026-05-04 13:52 | 28.97291 | 110.56451 | 37102 ft | 534 kts | 68° |
| 2026-05-04 13:53 | 29.00046 | 110.64325 | 37101 ft | 535 kts | 68° |
| 2026-05-04 13:53 | 29.02801 | 110.72212 | 37101 ft | 535 kts | 68° |
| 2026-05-04 13:54 | 29.06988 | 110.84045 | 37102 ft | 535 kts | 68° |
| 2026-05-04 13:55 | 29.11186 | 110.95869 | 37100 ft | 535 kts | 68° |
| 2026-05-04 13:55 | 29.15293 | 111.07511 | 37101 ft | 535 kts | 68° |
| 2026-05-04 13:56 | 29.18066 | 111.15398 | 37100 ft | 534 kts | 68° |
| 2026-05-04 13:57 | 29.22218 | 111.27237 | 37102 ft | 535 kts | 68° |
| 2026-05-04 13:58 | 29.27743 | 111.43052 | 37102 ft | 535 kts | 68° |
| 2026-05-04 13:58 | 29.31872 | 111.54914 | 37102 ft | 535 kts | 68° |
| 2026-05-04 13:59 | 29.34642 | 111.62765 | 37101 ft | 536 kts | 66° |
| 2026-05-04 14:00 | 29.40291 | 111.73751 | 37146 ft | 531 kts | 56° |
| 2026-05-04 14:00 | 29.46480 | 111.84344 | 37105 ft | 534 kts | 56° |
| 2026-05-04 14:01 | 29.50595 | 111.91527 | 37102 ft | 535 kts | 57° |
| 2026-05-04 14:02 | 29.56548 | 112.02005 | 37100 ft | 534 kts | 57° |
| 2026-05-04 14:02 | 29.60629 | 112.09195 | 37101 ft | 534 kts | 57° |
| 2026-05-04 14:03 | 29.64682 | 112.16345 | 37103 ft | 535 kts | 57° |
| 2026-05-04 14:03 | 29.68739 | 112.23513 | 37101 ft | 535 kts | 57° |
| 2026-05-04 14:04 | 29.74820 | 112.34283 | 37100 ft | 534 kts | 57° |
| 2026-05-04 14:04 | 29.78838 | 112.41450 | 37101 ft | 534 kts | 57° |
| 2026-05-04 14:05 | 29.84861 | 112.52234 | 37101 ft | 534 kts | 57° |
| 2026-05-04 14:06 | 29.88868 | 112.59422 | 37102 ft | 534 kts | 57° |
| 2026-05-04 14:06 | 29.92879 | 112.66626 | 37102 ft | 534 kts | 57° |
| 2026-05-04 14:07 | 29.96874 | 112.73814 | 37102 ft | 534 kts | 57° |
| 2026-05-04 14:07 | 30.00870 | 112.81016 | 37102 ft | 534 kts | 57° |
| 2026-05-04 14:08 | 30.04871 | 112.88242 | 37102 ft | 535 kts | 57° |
| 2026-05-04 14:08 | 30.08847 | 112.95436 | 37101 ft | 535 kts | 57° |
| 2026-05-04 14:09 | 30.14645 | 113.05948 | 37104 ft | 534 kts | 57° |
| 2026-05-04 14:10 | 30.20627 | 113.16824 | 37101 ft | 534 kts | 58° |
| 2026-05-04 14:10 | 30.24638 | 113.24056 | 37102 ft | 534 kts | 57° |
| 2026-05-04 14:11 | 30.28698 | 113.31260 | 37101 ft | 534 kts | 57° |
| 2026-05-04 14:11 | 30.32758 | 113.38481 | 36833 ft | 539 kts | 52° |
| 2026-05-04 14:11 | 30.34805 | 113.42130 | 36980 ft | 544 kts | 52° |
| 2026-05-04 14:12 | 30.38956 | 113.49553 | 37099 ft | 552 kts | 52° |
| 2026-05-04 14:13 | 30.45145 | 113.60680 | 37104 ft | 538 kts | 52° |
| 2026-05-04 14:13 | 30.49189 | 113.67951 | 37107 ft | 536 kts | 52° |
| 2026-05-04 14:14 | 30.53229 | 113.75223 | 37119 ft | 537 kts | 52° |
| 2026-05-04 14:14 | 30.56470 | 113.83061 | 37115 ft | 549 kts | 73° |
| 2026-05-04 14:14 | 30.57160 | 113.87438 | 37122 ft | 553 kts | 84° |
| 2026-05-04 14:15 | 30.56618 | 113.96335 | 37123 ft | 555 kts | 100° |
| 2026-05-04 14:15 | 30.55794 | 114.03428 | 37117 ft | 557 kts | 97° |
| 2026-05-04 14:16 | 30.54601 | 114.16873 | 37126 ft | 559 kts | 97° |
| 2026-05-04 14:17 | 30.53290 | 114.30216 | 37107 ft | 553 kts | 97° |
| 2026-05-04 14:18 | 30.52037 | 114.42912 | 37097 ft | 550 kts | 97° |
| 2026-05-04 14:18 | 30.51166 | 114.51728 | 37094 ft | 536 kts | 98° |